Sky Ranch, South Dakota
Current Conditions -  °F | °C
As of 5:51 PM on Friday 19 Dec 2014 (Local Time) from KBHK Reporting Station
Clear Clear  
Wind Chill: 27°   Ceiling: Unl
Heat Index: 27°   Visibility: 10mi
Dew Point: 22°   Wind: 3mph
Humidity: 81%   Direction: 160°SSE
Pressure: 29.9"   Gusts: NA
Location:  45.6592°N, 103.944°W
Report Text: KBHK 200051Z AUTO 16003KT 10SM CLR M03/M06 A2990 RMK AO2 SLP154 T10281056
Loading
Personal Weather Stations






























Interactive Weather Map New forecast layout! Learn more

10-Day Weather Forecast

Advertisements
Track Severe Weather on mobile